Skip to content

List of Articles
번호 분류 제목 글쓴이 날짜 조회 수 추천 수
공지 Best 신청 [회원작품 삭제대상 글 공지] 2 Nameless 2015.03.02 26677 0
공지 Best 신청 베스트 신청 1차 /2차 신청확인(1차 신청된 게시물과 2차신청된게시물 바로 확인할 수 있습니다.) 1 Nameless 2013.03.01 64482 0
공지 Best 신청 베스트신청 하시기전에 숙지부탁드립니다. (초 간단 베스트신청 가이드) 2 Nameless 2013.03.01 60772 5
공지 Best 신청 [베스트신청 가이드 베스트신청은 매달1일부터 월말 일주일전까지 신청가능합니다.] 11 Nameless 2013.02.01 68716 4
4666 완성곡 처음 올려봅니다. 많이 들어주시면 감사하겠습니다. :) 1 simz 2017.03.17 318 0
4665 완성곡 제가 보고 느낀걸 음악으로 표현해봤습니다 SharkAttack 2017.03.16 304 0
4664 완성곡 제드의 stay를 하우스로 리믹스 해 봤습니다. 2 1On 2017.03.16 365 0
4663 완성곡 새로운 곡 업로드 했씁니다 한번씩 들어주세요 ^~^ 3 레몬맛우유 2017.03.14 367 2
4662 완성곡 QUADЯUPLE⁴ - SAKURA ProDG 2017.03.13 310 0
4661 완성곡 Merry Christmas - Swallow 초무이 2017.03.12 334 0
4660 완성곡 제인생 첫번째 띵곡입니다 No Matter How Hard TeleVoy 2017.03.10 415 0
4659 완성곡 진격의 거인 Ost - 홍련의 화살 리믹스 Simpsonill 2017.03.07 488 0
4658 완성곡 친구 곡을 짧게 리믹스해봤습니다. Yes I'm in love [FBucket Remix] 1 빠께스 2017.03.06 360 0
4657 완성곡 TOBYNOH & Will Not Fear - IDIOT (하이브리드트랩,져지,부티) (콜랍) WillNotFear 2017.03.06 335 1
4656 완성곡 Wanderer (Space Ambient, Chillstep) Deekay 2017.03.06 333 0
4655 완성곡 케모노 프렌즈 Op - 어서오세요 자파리 파크에 리믹스 2 Simpsonill 2017.03.03 479 0
4654 완성곡 [Dubstep]안녕하세요. 넴레스입니당나귀. 2 Nameless 2017.03.01 366 0
4653 완성곡 Savior is Missing You(MoonHare Emotional Remix) 트리 오브 세이비어 ost 커버 공모전 곡 월묘 2017.03.01 274 0
4652 완성곡 모 공모전에 제출한 두 곡 입니다. 4 맥스웰 2017.02.27 352 1
4651 완성곡 Tacit child - 음산한 분위기의 음악을 만들어 보았습니다. 1 YG02507 2017.02.27 365 0
4650 완성곡 제목 1 nosirtech 2017.02.27 281 0
4649 완성곡 WTMN - Soda Drink (future beat) 2 WTMN 2017.02.27 279 0
4648 완성곡 너의 이름은 - 아무것도 아니야 리믹스 & 보컬 Simpsonill 2017.02.27 305 0
4647 완성곡 (Beat Maker Team Red 31) - Piece of glass (By HILLJO) dhdiddn 2017.02.27 307 0
4646 완성곡 뮤지컬 풍 자작곡 '높은 곳' (HIGH PLACE) 감나무사운드 2017.02.25 289 0
4645 완성곡 재지한 무드의 힙합 트랙입니다 한번씩 들어주세요 ^~^ 레몬맛우유 2017.02.24 337 0
4644 완성곡 [Dubstep]넴레스입니다. 간만에 올리는 곡. 6 Nameless 2017.02.22 443 0
4643 완성곡 Spring Rain ERIS 2017.02.21 320 0
4642 완성곡 fl studio mobile 3 데모곡 2 3 백수지망생 2017.02.20 329 0
4641 완성곡 ZUX - Blast'Em KEY! 2017.02.19 475 0
4640 완성곡 No problem 자작곡 데모입니다. SUNGMOK 2017.02.14 275 0
4639 완성곡 migos - bad and boujee 리믹스해봤습니당 sukiee094 2017.02.13 322 0
4638 완성곡 퓨쳐퓨쳐한비트 하나 올려봅니다 :) 1 Vibin 2017.02.13 348 0
4637 완성곡 리제로 Re zero - Stay Alive 리믹스 Simpsonill 2017.02.13 272 0
4636 완성곡 너의 이름은 - 전전전생 한국어 리믹스 Simpsonill 2017.02.11 264 0
4635 완성곡 어쿠스틱 락? 입니다.. 7 XYLENE 2017.02.11 335 0
4634 완성곡 "94 BPM" - Denny Wickid, Marcus Way, AFE, Maagid & Kim Ki (BCD Remix) BCD 2017.02.07 333 0
4633 완성곡 Command (2017 Version) Masader 2017.02.05 297 0
4632 완성곡 (Edm Trap) black USB 피드백 부탁드립니다 EL 2017.02.05 390 0
Board Pagination Prev 1 ... 3 4 5 6 7 8 9 10 11 12 13 14 15 16 17 18 19 20 21 22 ... 146 Next
/ 146

대표자 이름 : 강제헌 / 사이트 관리자 : 김상연 / 메일주소 : stemilio@flstudio.co.kr 전화번호 : 010-4565-4330 / 통신 판매번호 : 제10-309호 / 사업자 등록번호 : 603-90-91179

Supported by Let's FL, Makesound, Designed by St.Emilio

sketchbook5, 스케치북5

sketchbook5, 스케치북5

나눔글꼴 설치 안내


이 PC에는 나눔글꼴이 설치되어 있지 않습니다.

이 사이트를 나눔글꼴로 보기 위해서는
나눔글꼴을 설치해야 합니다.

설치 취소